sensor_id;sensor_type;location;lat;lon;timestamp;temperature;humidity
28845;DHT22;15976;47.938;7.758;2024-03-17T00:00:05;12.30;75.60
28845;DHT22;15976;47.938;7.758;2024-03-17T00:02:32;12.30;75.60
28845;DHT22;15976;47.938;7.758;2024-03-17T00:04:58;12.30;75.60
28845;DHT22;15976;47.938;7.758;2024-03-17T00:07:24;12.30;75.80
28845;DHT22;15976;47.938;7.758;2024-03-17T00:09:50;12.30;75.60
28845;DHT22;15976;47.938;7.758;2024-03-17T00:12:16;12.30;75.50
28845;DHT22;15976;47.938;7.758;2024-03-17T00:14:42;12.30;75.50
28845;DHT22;15976;47.938;7.758;2024-03-17T00:17:08;12.30;75.50
28845;DHT22;15976;47.938;7.758;2024-03-17T00:19:34;12.30;75.40
28845;DHT22;15976;47.938;7.758;2024-03-17T00:22:02;12.20;75.40
28845;DHT22;15976;47.938;7.758;2024-03-17T00:24:28;12.20;75.50
28845;DHT22;15976;47.938;7.758;2024-03-17T00:27:03;12.20;75.50
28845;DHT22;15976;47.938;7.758;2024-03-17T00:29:29;12.20;75.60
28845;DHT22;15976;47.938;7.758;2024-03-17T00:31:55;12.20;75.70
28845;DHT22;15976;47.938;7.758;2024-03-17T00:34:22;12.20;75.80
28845;DHT22;15976;47.938;7.758;2024-03-17T00:36:48;12.20;75.80
28845;DHT22;15976;47.938;7.758;2024-03-17T00:39:14;12.20;75.80
28845;DHT22;15976;47.938;7.758;2024-03-17T00:41:40;12.20;75.90
28845;DHT22;15976;47.938;7.758;2024-03-17T00:44:06;12.20;75.90
28845;DHT22;15976;47.938;7.758;2024-03-17T00:46:32;12.20;76.30
28845;DHT22;15976;47.938;7.758;2024-03-17T00:48:59;12.20;76.30
28845;DHT22;15976;47.938;7.758;2024-03-17T00:51:26;12.20;76.20
28845;DHT22;15976;47.938;7.758;2024-03-17T00:53:52;12.10;76.20
28845;DHT22;15976;47.938;7.758;2024-03-17T00:56:18;12.10;76.40
28845;DHT22;15976;47.938;7.758;2024-03-17T00:58:44;12.10;76.70
28845;DHT22;15976;47.938;7.758;2024-03-17T01:01:11;12.00;76.80
28845;DHT22;15976;47.938;7.758;2024-03-17T01:03:37;12.00;77.00
28845;DHT22;15976;47.938;7.758;2024-03-17T01:06:04;12.00;77.00
28845;DHT22;15976;47.938;7.758;2024-03-17T01:08:30;12.00;76.90
28845;DHT22;15976;47.938;7.758;2024-03-17T01:10:56;12.00;76.80
28845;DHT22;15976;47.938;7.758;2024-03-17T01:13:24;11.90;76.80
28845;DHT22;15976;47.938;7.758;2024-03-17T01:15:53;11.90;77.10
28845;DHT22;15976;47.938;7.758;2024-03-17T01:18:19;11.90;77.20
28845;DHT22;15976;47.938;7.758;2024-03-17T01:20:45;11.80;77.30
28845;DHT22;15976;47.938;7.758;2024-03-17T01:23:12;11.80;77.30
28845;DHT22;15976;47.938;7.758;2024-03-17T01:25:39;11.80;77.40
28845;DHT22;15976;47.938;7.758;2024-03-17T01:28:06;11.70;77.40
28845;DHT22;15976;47.938;7.758;2024-03-17T01:30:32;11.70;77.60
28845;DHT22;15976;47.938;7.758;2024-03-17T01:33:00;11.70;77.70
28845;DHT22;15976;47.938;7.758;2024-03-17T01:35:26;11.60;77.90
28845;DHT22;15976;47.938;7.758;2024-03-17T01:37:52;11.60;78.20
28845;DHT22;15976;47.938;7.758;2024-03-17T01:40:19;11.60;78.40
28845;DHT22;15976;47.938;7.758;2024-03-17T01:42:45;11.60;78.40
28845;DHT22;15976;47.938;7.758;2024-03-17T01:47:43;11.60;78.60
28845;DHT22;15976;47.938;7.758;2024-03-17T01:50:09;11.50;78.40
28845;DHT22;15976;47.938;7.758;2024-03-17T01:52:38;11.50;78.60
28845;DHT22;15976;47.938;7.758;2024-03-17T01:55:04;11.40;78.60
28845;DHT22;15976;47.938;7.758;2024-03-17T01:57:31;11.40;78.60
28845;DHT22;15976;47.938;7.758;2024-03-17T01:59:57;11.40;78.60
28845;DHT22;15976;47.938;7.758;2024-03-17T02:02:24;11.40;78.60
28845;DHT22;15976;47.938;7.758;2024-03-17T02:04:51;11.30;78.60
28845;DHT22;15976;47.938;7.758;2024-03-17T02:07:17;11.30;78.60
28845;DHT22;15976;47.938;7.758;2024-03-17T02:09:43;11.20;78.60
28845;DHT22;15976;47.938;7.758;2024-03-17T02:12:09;11.20;78.80
28845;DHT22;15976;47.938;7.758;2024-03-17T02:14:37;11.20;78.90
28845;DHT22;15976;47.938;7.758;2024-03-17T02:17:04;11.20;78.90
28845;DHT22;15976;47.938;7.758;2024-03-17T02:19:30;11.10;78.90
28845;DHT22;15976;47.938;7.758;2024-03-17T02:21:57;11.10;78.90
28845;DHT22;15976;47.938;7.758;2024-03-17T02:24:23;11.10;79.00
28845;DHT22;15976;47.938;7.758;2024-03-17T02:26:49;11.00;79.10
28845;DHT22;15976;47.938;7.758;2024-03-17T02:29:15;11.00;79.20
28845;DHT22;15976;47.938;7.758;2024-03-17T02:31:41;11.00;79.10
28845;DHT22;15976;47.938;7.758;2024-03-17T02:34:07;10.90;79.00
28845;DHT22;15976;47.938;7.758;2024-03-17T02:36:33;10.80;79.10
28845;DHT22;15976;47.938;7.758;2024-03-17T02:38:59;10.80;79.40
28845;DHT22;15976;47.938;7.758;2024-03-17T02:41:44;10.70;79.40
28845;DHT22;15976;47.938;7.758;2024-03-17T02:44:11;10.60;79.50
28845;DHT22;15976;47.938;7.758;2024-03-17T02:46:37;10.60;79.60
28845;DHT22;15976;47.938;7.758;2024-03-17T02:49:04;10.60;79.80
28845;DHT22;15976;47.938;7.758;2024-03-17T02:51:30;10.50;79.90
28845;DHT22;15976;47.938;7.758;2024-03-17T02:53:56;10.50;80.00
28845;DHT22;15976;47.938;7.758;2024-03-17T02:56:25;10.40;79.90
28845;DHT22;15976;47.938;7.758;2024-03-17T02:58:51;10.40;80.00
28845;DHT22;15976;47.938;7.758;2024-03-17T03:01:17;10.30;80.00
28845;DHT22;15976;47.938;7.758;2024-03-17T03:03:45;10.30;80.10
28845;DHT22;15976;47.938;7.758;2024-03-17T03:06:11;10.20;80.10
28845;DHT22;15976;47.938;7.758;2024-03-17T03:08:39;10.20;80.30
28845;DHT22;15976;47.938;7.758;2024-03-17T03:11:11;10.10;80.50
28845;DHT22;15976;47.938;7.758;2024-03-17T03:13:38;10.10;80.70
28845;DHT22;15976;47.938;7.758;2024-03-17T03:16:10;10.10;80.70
28845;DHT22;15976;47.938;7.758;2024-03-17T03:18:37;10.10;80.70
28845;DHT22;15976;47.938;7.758;2024-03-17T03:21:04;10.00;80.70
28845;DHT22;15976;47.938;7.758;2024-03-17T03:23:30;10.00;80.70
28845;DHT22;15976;47.938;7.758;2024-03-17T03:26:02;10.00;80.70
28845;DHT22;15976;47.938;7.758;2024-03-17T03:28:30;9.90;80.80
28845;DHT22;15976;47.938;7.758;2024-03-17T03:30:57;9.90;80.90
28845;DHT22;15976;47.938;7.758;2024-03-17T03:33:23;9.80;81.80
28845;DHT22;15976;47.938;7.758;2024-03-17T03:35:49;9.80;81.10
28845;DHT22;15976;47.938;7.758;2024-03-17T03:38:17;9.80;81.20
28845;DHT22;15976;47.938;7.758;2024-03-17T03:40:44;9.70;81.30
28845;DHT22;15976;47.938;7.758;2024-03-17T03:43:10;9.70;81.40
28845;DHT22;15976;47.938;7.758;2024-03-17T03:45:37;9.70;81.50
28845;DHT22;15976;47.938;7.758;2024-03-17T03:48:04;9.70;81.60
28845;DHT22;15976;47.938;7.758;2024-03-17T03:50:30;9.60;81.70
28845;DHT22;15976;47.938;7.758;2024-03-17T03:52:56;9.60;81.80
28845;DHT22;15976;47.938;7.758;2024-03-17T03:55:22;9.60;81.90
28845;DHT22;15976;47.938;7.758;2024-03-17T03:57:50;9.60;82.10
28845;DHT22;15976;47.938;7.758;2024-03-17T04:00:19;9.50;82.00
28845;DHT22;15976;47.938;7.758;2024-03-17T04:02:51;9.50;82.10
28845;DHT22;15976;47.938;7.758;2024-03-17T04:05:18;9.50;82.30
28845;DHT22;15976;47.938;7.758;2024-03-17T04:07:46;9.40;82.40
28845;DHT22;15976;47.938;7.758;2024-03-17T04:10:13;9.40;82.30
28845;DHT22;15976;47.938;7.758;2024-03-17T04:12:40;9.30;82.50
28845;DHT22;15976;47.938;7.758;2024-03-17T04:15:06;9.30;82.80
28845;DHT22;15976;47.938;7.758;2024-03-17T04:17:34;9.20;82.90
28845;DHT22;15976;47.938;7.758;2024-03-17T04:20:00;9.20;83.20
28845;DHT22;15976;47.938;7.758;2024-03-17T04:22:26;9.20;83.40
28845;DHT22;15976;47.938;7.758;2024-03-17T04:24:52;9.20;83.40
28845;DHT22;15976;47.938;7.758;2024-03-17T04:27:20;9.20;83.40
28845;DHT22;15976;47.938;7.758;2024-03-17T04:29:47;9.20;83.40
28845;DHT22;15976;47.938;7.758;2024-03-17T04:32:14;9.20;83.60
28845;DHT22;15976;47.938;7.758;2024-03-17T04:34:40;9.20;83.40
28845;DHT22;15976;47.938;7.758;2024-03-17T04:37:06;9.20;83.40
28845;DHT22;15976;47.938;7.758;2024-03-17T04:39:32;9.20;83.40
28845;DHT22;15976;47.938;7.758;2024-03-17T04:41:58;9.20;83.70
28845;DHT22;15976;47.938;7.758;2024-03-17T04:44:25;9.20;83.80
28845;DHT22;15976;47.938;7.758;2024-03-17T04:46:51;9.20;84.00
28845;DHT22;15976;47.938;7.758;2024-03-17T04:49:17;9.20;84.00
28845;DHT22;15976;47.938;7.758;2024-03-17T04:51:43;9.20;83.90
28845;DHT22;15976;47.938;7.758;2024-03-17T04:54:10;9.20;83.80
28845;DHT22;15976;47.938;7.758;2024-03-17T04:56:36;9.20;83.90
28845;DHT22;15976;47.938;7.758;2024-03-17T04:59:03;9.20;84.10
28845;DHT22;15976;47.938;7.758;2024-03-17T05:01:29;9.10;84.10
28845;DHT22;15976;47.938;7.758;2024-03-17T05:03:57;9.10;84.10
28845;DHT22;15976;47.938;7.758;2024-03-17T05:06:23;9.20;84.30
28845;DHT22;15976;47.938;7.758;2024-03-17T05:08:49;9.10;84.30
28845;DHT22;15976;47.938;7.758;2024-03-17T05:11:15;9.20;84.40
28845;DHT22;15976;47.938;7.758;2024-03-17T05:13:41;9.10;84.30
28845;DHT22;15976;47.938;7.758;2024-03-17T05:16:07;9.10;84.40
28845;DHT22;15976;47.938;7.758;2024-03-17T05:18:33;9.10;84.50
28845;DHT22;15976;47.938;7.758;2024-03-17T05:21:01;9.10;84.50
28845;DHT22;15976;47.938;7.758;2024-03-17T05:23:32;9.10;84.60
28845;DHT22;15976;47.938;7.758;2024-03-17T05:25:59;9.10;84.60
28845;DHT22;15976;47.938;7.758;2024-03-17T05:28:26;9.10;84.80
28845;DHT22;15976;47.938;7.758;2024-03-17T05:30:52;9.10;84.80
28845;DHT22;15976;47.938;7.758;2024-03-17T05:33:19;9.10;85.00
28845;DHT22;15976;47.938;7.758;2024-03-17T05:35:51;9.10;85.10
28845;DHT22;15976;47.938;7.758;2024-03-17T05:38:27;9.10;85.00
28845;DHT22;15976;47.938;7.758;2024-03-17T05:41:05;9.20;85.20
28845;DHT22;15976;47.938;7.758;2024-03-17T05:43:35;9.20;85.20
28845;DHT22;15976;47.938;7.758;2024-03-17T05:46:04;9.20;85.10
28845;DHT22;15976;47.938;7.758;2024-03-17T05:48:39;9.20;85.00
28845;DHT22;15976;47.938;7.758;2024-03-17T05:51:07;9.30;85.20
28845;DHT22;15976;47.938;7.758;2024-03-17T05:53:33;9.30;85.10
28845;DHT22;15976;47.938;7.758;2024-03-17T05:56:00;9.30;85.10
28845;DHT22;15976;47.938;7.758;2024-03-17T05:58:26;9.30;85.10
28845;DHT22;15976;47.938;7.758;2024-03-17T06:00:52;9.40;85.00
28845;DHT22;15976;47.938;7.758;2024-03-17T06:03:18;9.40;85.10
28845;DHT22;15976;47.938;7.758;2024-03-17T06:05:45;9.40;85.10
28845;DHT22;15976;47.938;7.758;2024-03-17T06:08:12;9.40;85.10
28845;DHT22;15976;47.938;7.758;2024-03-17T06:10:46;9.50;85.10
28845;DHT22;15976;47.938;7.758;2024-03-17T06:13:15;9.50;84.90
28845;DHT22;15976;47.938;7.758;2024-03-17T06:15:44;9.50;84.70
28845;DHT22;15976;47.938;7.758;2024-03-17T06:18:12;9.60;84.70
28845;DHT22;15976;47.938;7.758;2024-03-17T06:20:41;9.60;84.70
28845;DHT22;15976;47.938;7.758;2024-03-17T06:23:11;9.60;84.50
28845;DHT22;15976;47.938;7.758;2024-03-17T06:25:42;9.70;84.50
28845;DHT22;15976;47.938;7.758;2024-03-17T06:28:09;9.70;84.40
28845;DHT22;15976;47.938;7.758;2024-03-17T06:30:43;9.70;84.40
28845;DHT22;15976;47.938;7.758;2024-03-17T06:33:13;9.80;84.30
28845;DHT22;15976;47.938;7.758;2024-03-17T06:35:40;9.80;84.10
28845;DHT22;15976;47.938;7.758;2024-03-17T06:38:06;9.90;84.00
28845;DHT22;15976;47.938;7.758;2024-03-17T06:40:36;9.90;84.00
28845;DHT22;15976;47.938;7.758;2024-03-17T06:43:02;10.00;83.90
28845;DHT22;15976;47.938;7.758;2024-03-17T06:45:29;10.10;84.00
28845;DHT22;15976;47.938;7.758;2024-03-17T06:47:55;10.10;83.80
28845;DHT22;15976;47.938;7.758;2024-03-17T06:50:21;10.10;83.70
28845;DHT22;15976;47.938;7.758;2024-03-17T06:52:48;10.20;83.40
28845;DHT22;15976;47.938;7.758;2024-03-17T06:55:14;10.20;83.30
28845;DHT22;15976;47.938;7.758;2024-03-17T06:57:43;10.30;83.20
28845;DHT22;15976;47.938;7.758;2024-03-17T07:00:14;10.30;83.20
28845;DHT22;15976;47.938;7.758;2024-03-17T07:02:42;10.40;83.30
28845;DHT22;15976;47.938;7.758;2024-03-17T07:05:13;10.50;83.20
28845;DHT22;15976;47.938;7.758;2024-03-17T07:07:42;10.60;83.10
28845;DHT22;15976;47.938;7.758;2024-03-17T07:10:10;10.70;82.80
28845;DHT22;15976;47.938;7.758;2024-03-17T07:12:41;10.80;82.80
28845;DHT22;15976;47.938;7.758;2024-03-17T07:15:07;11.10;82.30
28845;DHT22;15976;47.938;7.758;2024-03-17T07:17:34;11.50;80.70
28845;DHT22;15976;47.938;7.758;2024-03-17T07:20:01;11.90;79.00
28845;DHT22;15976;47.938;7.758;2024-03-17T07:22:27;12.20;77.30
28845;DHT22;15976;47.938;7.758;2024-03-17T07:24:54;12.40;76.20
28845;DHT22;15976;47.938;7.758;2024-03-17T07:27:27;12.60;75.60
28845;DHT22;15976;47.938;7.758;2024-03-17T07:29:53;12.90;74.50
28845;DHT22;15976;47.938;7.758;2024-03-17T07:32:20;13.10;73.30
28845;DHT22;15976;47.938;7.758;2024-03-17T07:34:46;13.20;72.60
28845;DHT22;15976;47.938;7.758;2024-03-17T07:37:12;13.20;72.10
28845;DHT22;15976;47.938;7.758;2024-03-17T07:39:38;13.10;72.00
28845;DHT22;15976;47.938;7.758;2024-03-17T07:42:04;13.00;72.50
28845;DHT22;15976;47.938;7.758;2024-03-17T07:44:31;12.90;73.00
28845;DHT22;15976;47.938;7.758;2024-03-17T07:47:03;12.90;73.80
28845;DHT22;15976;47.938;7.758;2024-03-17T07:49:33;13.10;73.30
28845;DHT22;15976;47.938;7.758;2024-03-17T07:51:59;13.30;72.60
28845;DHT22;15976;47.938;7.758;2024-03-17T07:54:26;13.60;72.20
28845;DHT22;15976;47.938;7.758;2024-03-17T07:56:52;13.80;71.20
28845;DHT22;15976;47.938;7.758;2024-03-17T07:59:18;14.10;70.30
28845;DHT22;15976;47.938;7.758;2024-03-17T08:01:45;14.30;69.80
28845;DHT22;15976;47.938;7.758;2024-03-17T08:04:11;14.60;68.80
28845;DHT22;15976;47.938;7.758;2024-03-17T08:06:39;14.90;67.70
28845;DHT22;15976;47.938;7.758;2024-03-17T08:09:10;14.90;67.10
28845;DHT22;15976;47.938;7.758;2024-03-17T08:11:40;14.80;67.10
28845;DHT22;15976;47.938;7.758;2024-03-17T08:14:13;14.60;67.40
28845;DHT22;15976;47.938;7.758;2024-03-17T08:16:40;14.50;67.80
28845;DHT22;15976;47.938;7.758;2024-03-17T08:19:07;14.30;68.20
28845;DHT22;15976;47.938;7.758;2024-03-17T08:21:33;14.30;68.80
28845;DHT22;15976;47.938;7.758;2024-03-17T08:23:59;14.20;69.20
28845;DHT22;15976;47.938;7.758;2024-03-17T08:26:25;14.20;69.50
28845;DHT22;15976;47.938;7.758;2024-03-17T08:28:51;14.20;70.00
28845;DHT22;15976;47.938;7.758;2024-03-17T08:31:17;14.20;70.00
28845;DHT22;15976;47.938;7.758;2024-03-17T08:33:44;14.10;70.10
28845;DHT22;15976;47.938;7.758;2024-03-17T08:36:10;14.10;70.30
28845;DHT22;15976;47.938;7.758;2024-03-17T08:38:37;14.10;70.40
28845;DHT22;15976;47.938;7.758;2024-03-17T08:41:05;14.10;69.90
28845;DHT22;15976;47.938;7.758;2024-03-17T08:43:31;14.00;69.90
28845;DHT22;15976;47.938;7.758;2024-03-17T08:46:06;13.90;69.80
28845;DHT22;15976;47.938;7.758;2024-03-17T08:48:34;13.90;69.90
28845;DHT22;15976;47.938;7.758;2024-03-17T08:51:01;13.90;70.20
28845;DHT22;15976;47.938;7.758;2024-03-17T08:53:28;13.90;70.20
28845;DHT22;15976;47.938;7.758;2024-03-17T08:55:55;13.80;70.20
28845;DHT22;15976;47.938;7.758;2024-03-17T08:58:22;13.80;70.40
28845;DHT22;15976;47.938;7.758;2024-03-17T09:00:48;13.70;70.50
28845;DHT22;15976;47.938;7.758;2024-03-17T09:03:14;13.70;70.80
28845;DHT22;15976;47.938;7.758;2024-03-17T09:05:43;13.70;70.80
28845;DHT22;15976;47.938;7.758;2024-03-17T09:08:18;13.80;70.90
28845;DHT22;15976;47.938;7.758;2024-03-17T09:10:46;13.90;70.70
28845;DHT22;15976;47.938;7.758;2024-03-17T09:13:17;14.00;70.80
28845;DHT22;15976;47.938;7.758;2024-03-17T09:18:26;14.00;70.30
28845;DHT22;15976;47.938;7.758;2024-03-17T09:21:07;14.10;70.40
28845;DHT22;15976;47.938;7.758;2024-03-17T09:23:34;14.10;70.40
28845;DHT22;15976;47.938;7.758;2024-03-17T09:26:11;14.10;70.30
28845;DHT22;15976;47.938;7.758;2024-03-17T09:28:42;14.20;70.40
28845;DHT22;15976;47.938;7.758;2024-03-17T09:31:08;14.20;70.20
28845;DHT22;15976;47.938;7.758;2024-03-17T09:33:37;14.20;70.00
28845;DHT22;15976;47.938;7.758;2024-03-17T09:36:05;14.20;70.00
28845;DHT22;15976;47.938;7.758;2024-03-17T09:38:32;14.20;70.20
28845;DHT22;15976;47.938;7.758;2024-03-17T09:40:59;14.30;70.20
28845;DHT22;15976;47.938;7.758;2024-03-17T09:43:29;14.30;70.00
28845;DHT22;15976;47.938;7.758;2024-03-17T09:45:55;14.40;70.20
28845;DHT22;15976;47.938;7.758;2024-03-17T09:48:25;14.40;70.00
28845;DHT22;15976;47.938;7.758;2024-03-17T09:51:00;14.40;69.70
28845;DHT22;15976;47.938;7.758;2024-03-17T09:53:29;14.40;69.50
28845;DHT22;15976;47.938;7.758;2024-03-17T09:56:08;14.40;69.50
28845;DHT22;15976;47.938;7.758;2024-03-17T09:58:35;14.40;69.30
28845;DHT22;15976;47.938;7.758;2024-03-17T10:01:01;14.40;69.10
28845;DHT22;15976;47.938;7.758;2024-03-17T10:06:09;14.40;69.30
28845;DHT22;15976;47.938;7.758;2024-03-17T10:11:07;14.30;69.30
28845;DHT22;15976;47.938;7.758;2024-03-17T10:13:34;14.30;69.20
28845;DHT22;15976;47.938;7.758;2024-03-17T10:16:00;14.30;69.10
28845;DHT22;15976;47.938;7.758;2024-03-17T10:18:26;14.30;69.20
28845;DHT22;15976;47.938;7.758;2024-03-17T10:20:52;14.20;69.20
28845;DHT22;15976;47.938;7.758;2024-03-17T10:23:22;14.30;69.40
28845;DHT22;15976;47.938;7.758;2024-03-17T10:25:49;14.30;69.50
28845;DHT22;15976;47.938;7.758;2024-03-17T10:28:17;14.40;69.30
28845;DHT22;15976;47.938;7.758;2024-03-17T10:30:57;14.40;69.20
28845;DHT22;15976;47.938;7.758;2024-03-17T10:33:24;14.50;69.10
28845;DHT22;15976;47.938;7.758;2024-03-17T10:35:58;14.50;69.00
28845;DHT22;15976;47.938;7.758;2024-03-17T10:38:26;14.60;68.80
28845;DHT22;15976;47.938;7.758;2024-03-17T10:40:53;14.60;68.50
28845;DHT22;15976;47.938;7.758;2024-03-17T10:43:19;14.60;68.10
28845;DHT22;15976;47.938;7.758;2024-03-17T10:45:52;14.50;68.00
28845;DHT22;15976;47.938;7.758;2024-03-17T10:48:20;14.50;67.80
28845;DHT22;15976;47.938;7.758;2024-03-17T10:50:49;14.50;67.70
28845;DHT22;15976;47.938;7.758;2024-03-17T10:53:19;14.50;67.70
28845;DHT22;15976;47.938;7.758;2024-03-17T10:56:00;14.50;67.60
28845;DHT22;15976;47.938;7.758;2024-03-17T10:58:35;14.50;67.50
28845;DHT22;15976;47.938;7.758;2024-03-17T11:01:04;14.50;67.20
28845;DHT22;15976;47.938;7.758;2024-03-17T11:03:33;14.40;67.10
28845;DHT22;15976;47.938;7.758;2024-03-17T11:06:01;14.40;66.90
28845;DHT22;15976;47.938;7.758;2024-03-17T11:08:33;14.40;66.60
28845;DHT22;15976;47.938;7.758;2024-03-17T11:11:00;14.40;66.80
28845;DHT22;15976;47.938;7.758;2024-03-17T11:13:33;14.40;67.20
28845;DHT22;15976;47.938;7.758;2024-03-17T11:16:00;14.50;67.40
28845;DHT22;15976;47.938;7.758;2024-03-17T11:18:37;14.60;67.80
28845;DHT22;15976;47.938;7.758;2024-03-17T11:21:20;14.70;67.90
28845;DHT22;15976;47.938;7.758;2024-03-17T11:23:59;14.90;67.80
28845;DHT22;15976;47.938;7.758;2024-03-17T11:26:33;15.10;68.00
28845;DHT22;15976;47.938;7.758;2024-03-17T11:29:00;15.30;67.90
28845;DHT22;15976;47.938;7.758;2024-03-17T11:36:52;15.70;66.70
28845;DHT22;15976;47.938;7.758;2024-03-17T11:39:19;15.70;66.40
28845;DHT22;15976;47.938;7.758;2024-03-17T11:41:48;15.70;66.40
28845;DHT22;15976;47.938;7.758;2024-03-17T11:47:00;15.70;66.50
28845;DHT22;15976;47.938;7.758;2024-03-17T11:49:35;15.80;66.50
28845;DHT22;15976;47.938;7.758;2024-03-17T11:52:12;15.70;66.40
28845;DHT22;15976;47.938;7.758;2024-03-17T11:54:40;15.60;66.30
28845;DHT22;15976;47.938;7.758;2024-03-17T11:57:08;15.60;66.40
28845;DHT22;15976;47.938;7.758;2024-03-17T11:59:36;15.60;66.50
28845;DHT22;15976;47.938;7.758;2024-03-17T12:02:28;15.60;66.70
28845;DHT22;15976;47.938;7.758;2024-03-17T12:04:57;15.70;67.00
28845;DHT22;15976;47.938;7.758;2024-03-17T12:07:24;15.80;66.80
28845;DHT22;15976;47.938;7.758;2024-03-17T12:09:52;15.80;66.80
28845;DHT22;15976;47.938;7.758;2024-03-17T12:12:24;15.70;66.40
28845;DHT22;15976;47.938;7.758;2024-03-17T12:14:52;15.80;66.60
28845;DHT22;15976;47.938;7.758;2024-03-17T12:17:23;15.70;66.80
28845;DHT22;15976;47.938;7.758;2024-03-17T12:19:51;15.70;67.20
28845;DHT22;15976;47.938;7.758;2024-03-17T12:22:22;15.70;67.50
28845;DHT22;15976;47.938;7.758;2024-03-17T12:24:53;15.70;67.70
28845;DHT22;15976;47.938;7.758;2024-03-17T12:27:23;15.70;67.80
28845;DHT22;15976;47.938;7.758;2024-03-17T12:29:51;15.70;67.80
28845;DHT22;15976;47.938;7.758;2024-03-17T12:32:23;15.80;67.90
28845;DHT22;15976;47.938;7.758;2024-03-17T12:37:25;15.70;67.60
28845;DHT22;15976;47.938;7.758;2024-03-17T12:39:56;15.70;67.40
28845;DHT22;15976;47.938;7.758;2024-03-17T12:42:24;15.60;67.40
28845;DHT22;15976;47.938;7.758;2024-03-17T12:44:55;15.50;67.70
28845;DHT22;15976;47.938;7.758;2024-03-17T12:47:24;15.50;68.00
28845;DHT22;15976;47.938;7.758;2024-03-17T12:49:51;15.50;68.00
28845;DHT22;15976;47.938;7.758;2024-03-17T12:52:20;15.50;68.00
28845;DHT22;15976;47.938;7.758;2024-03-17T12:55:00;15.60;67.90
28845;DHT22;15976;47.938;7.758;2024-03-17T13:01:05;15.60;67.80
28845;DHT22;15976;47.938;7.758;2024-03-17T13:03:36;15.60;67.60
28845;DHT22;15976;47.938;7.758;2024-03-17T13:06:04;15.70;67.50
28845;DHT22;15976;47.938;7.758;2024-03-17T13:08:34;15.70;67.50
28845;DHT22;15976;47.938;7.758;2024-03-17T13:11:01;15.80;67.70
28845;DHT22;15976;47.938;7.758;2024-03-17T13:13:30;15.90;67.80
28845;DHT22;15976;47.938;7.758;2024-03-17T13:15:56;16.00;67.50
28845;DHT22;15976;47.938;7.758;2024-03-17T13:18:22;16.10;67.30
28845;DHT22;15976;47.938;7.758;2024-03-17T13:20:48;16.10;67.10
28845;DHT22;15976;47.938;7.758;2024-03-17T13:23:20;16.10;67.00
28845;DHT22;15976;47.938;7.758;2024-03-17T13:25:50;16.00;67.90
28845;DHT22;15976;47.938;7.758;2024-03-17T13:28:16;16.10;67.60
28845;DHT22;15976;47.938;7.758;2024-03-17T13:30:42;16.10;67.30
28845;DHT22;15976;47.938;7.758;2024-03-17T13:33:10;16.20;67.10
28845;DHT22;15976;47.938;7.758;2024-03-17T13:35:39;16.20;66.90
28845;DHT22;15976;47.938;7.758;2024-03-17T13:38:06;16.20;66.80
28845;DHT22;15976;47.938;7.758;2024-03-17T13:40:36;16.20;67.10
28845;DHT22;15976;47.938;7.758;2024-03-17T13:43:03;16.30;67.20
28845;DHT22;15976;47.938;7.758;2024-03-17T13:45:37;16.30;67.00
28845;DHT22;15976;47.938;7.758;2024-03-17T13:48:04;16.30;67.10
28845;DHT22;15976;47.938;7.758;2024-03-17T13:50:31;16.20;67.40
28845;DHT22;15976;47.938;7.758;2024-03-17T13:52:57;16.20;67.70
28845;DHT22;15976;47.938;7.758;2024-03-17T13:55:25;16.10;67.80
28845;DHT22;15976;47.938;7.758;2024-03-17T13:57:56;16.10;68.10
28845;DHT22;15976;47.938;7.758;2024-03-17T14:00:28;16.10;68.30
28845;DHT22;15976;47.938;7.758;2024-03-17T14:02:55;16.10;68.60
28845;DHT22;15976;47.938;7.758;2024-03-17T14:05:25;16.10;69.00
28845;DHT22;15976;47.938;7.758;2024-03-17T14:07:53;16.20;69.00
28845;DHT22;15976;47.938;7.758;2024-03-17T14:10:25;16.30;68.80
28845;DHT22;15976;47.938;7.758;2024-03-17T14:12:51;16.30;68.60
28845;DHT22;15976;47.938;7.758;2024-03-17T14:15:19;16.30;68.60
28845;DHT22;15976;47.938;7.758;2024-03-17T14:17:46;16.30;68.80
28845;DHT22;15976;47.938;7.758;2024-03-17T14:20:14;16.20;69.00
28845;DHT22;15976;47.938;7.758;2024-03-17T14:22:41;16.10;69.10
28845;DHT22;15976;47.938;7.758;2024-03-17T14:25:09;16.00;69.20
28845;DHT22;15976;47.938;7.758;2024-03-17T14:27:36;16.00;69.20
28845;DHT22;15976;47.938;7.758;2024-03-17T14:30:03;15.90;69.30
28845;DHT22;15976;47.938;7.758;2024-03-17T14:32:30;15.90;69.40
28845;DHT22;15976;47.938;7.758;2024-03-17T14:34:56;15.80;69.50
28845;DHT22;15976;47.938;7.758;2024-03-17T14:37:22;15.80;69.80
28845;DHT22;15976;47.938;7.758;2024-03-17T14:39:51;15.80;70.10
28845;DHT22;15976;47.938;7.758;2024-03-17T14:42:17;15.80;69.90
28845;DHT22;15976;47.938;7.758;2024-03-17T14:44:43;15.80;69.70
28845;DHT22;15976;47.938;7.758;2024-03-17T14:47:09;15.80;70.40
28845;DHT22;15976;47.938;7.758;2024-03-17T14:49:37;15.70;70.00
28845;DHT22;15976;47.938;7.758;2024-03-17T14:52:03;15.70;70.00
28845;DHT22;15976;47.938;7.758;2024-03-17T14:54:32;15.60;70.00
28845;DHT22;15976;47.938;7.758;2024-03-17T14:56:58;15.50;70.20
28845;DHT22;15976;47.938;7.758;2024-03-17T14:59:24;15.40;70.40
28845;DHT22;15976;47.938;7.758;2024-03-17T15:01:53;15.20;70.50
28845;DHT22;15976;47.938;7.758;2024-03-17T15:04:20;15.20;70.90
28845;DHT22;15976;47.938;7.758;2024-03-17T15:06:46;15.10;71.10
28845;DHT22;15976;47.938;7.758;2024-03-17T15:09:13;15.00;71.40
28845;DHT22;15976;47.938;7.758;2024-03-17T15:11:39;14.90;71.60
28845;DHT22;15976;47.938;7.758;2024-03-17T15:14:05;14.80;72.10
28845;DHT22;15976;47.938;7.758;2024-03-17T15:16:37;14.70;72.80
28845;DHT22;15976;47.938;7.758;2024-03-17T15:19:05;14.60;73.40
28845;DHT22;15976;47.938;7.758;2024-03-17T15:21:32;14.50;74.10
28845;DHT22;15976;47.938;7.758;2024-03-17T15:23:59;14.50;74.40
28845;DHT22;15976;47.938;7.758;2024-03-17T15:26:26;14.40;75.30
28845;DHT22;15976;47.938;7.758;2024-03-17T15:28:52;14.30;76.50
28845;DHT22;15976;47.938;7.758;2024-03-17T15:31:18;14.20;76.90
28845;DHT22;15976;47.938;7.758;2024-03-17T15:33:46;14.20;77.30
28845;DHT22;15976;47.938;7.758;2024-03-17T15:36:14;14.20;77.60
28845;DHT22;15976;47.938;7.758;2024-03-17T15:38:40;14.20;77.80
28845;DHT22;15976;47.938;7.758;2024-03-17T15:41:10;14.30;78.00
28845;DHT22;15976;47.938;7.758;2024-03-17T15:43:37;14.30;78.30
28845;DHT22;15976;47.938;7.758;2024-03-17T15:46:15;14.30;77.90
28845;DHT22;15976;47.938;7.758;2024-03-17T15:48:42;14.30;78.10
28845;DHT22;15976;47.938;7.758;2024-03-17T15:51:08;14.30;78.50
28845;DHT22;15976;47.938;7.758;2024-03-17T15:53:34;14.30;78.80
28845;DHT22;15976;47.938;7.758;2024-03-17T15:56:01;14.30;78.90
28845;DHT22;15976;47.938;7.758;2024-03-17T15:58:29;14.40;79.10
28845;DHT22;15976;47.938;7.758;2024-03-17T16:00:56;14.40;79.00
28845;DHT22;15976;47.938;7.758;2024-03-17T16:03:33;14.30;79.70